Time;durP1;ratioP1;P1;durP2;ratioP2;P2;SDS_P1;SDS_P2;PMS_P1;PMS_P2;Temp;Humidity;BMP_temperature;BMP_pressure;BME280_temperature;BME280_humidity;BME280_pressure;Samples;Min_cycle;Max_cycle;Signal;HPM_P1;HPM_P2
2022/03/10 00:02:15;;;;;;;;;;;4.40;99.70;;;;;;5073021;28;19925;-61
2022/03/10 00:04:40;;;;;;;;;;;4.40;99.00;;;;;;5072898;28;20346;-61
2022/03/10 00:07:06;;;;;;;;;;;4.40;99.80;;;;;;5072570;28;19980;-61
2022/03/10 00:09:32;;;;;;;;;;;4.40;99.10;;;;;;5071200;28;20317;-62
2022/03/10 00:11:58;;;;;;;;;;;4.30;99.40;;;;;;5072380;28;19970;-62
2022/03/10 00:14:23;;;;;;;;;;;4.40;99.60;;;;;;5072650;28;19928;-62
2022/03/10 00:16:49;;;;;;;;;;;4.20;99.90;;;;;;5072060;28;20309;-66
2022/03/10 00:19:16;;;;;;;;;;;4.20;99.90;;;;;;5072564;28;20332;-65
2022/03/10 00:21:45;;;;;;;;;;;4.20;99.90;;;;;;5072531;28;19924;-62
2022/03/10 00:24:10;;;;;;;;;;;4.10;99.90;;;;;;5072097;28;20362;-61
2022/03/10 00:26:37;;;;;;;;;;;4.10;99.90;;;;;;5071498;28;19991;-61
2022/03/10 00:29:03;;;;;;;;;;;4.10;99.90;;;;;;5072261;28;20340;-61
2022/03/10 00:31:28;;;;;;;;;;;4.10;99.90;;;;;;5072519;28;19931;-62
2022/03/10 00:33:54;;;;;;;;;;;4.10;99.90;;;;;;5071039;28;19924;-62
2022/03/10 00:36:19;;;;;;;;;;;4.10;99.90;;;;;;5072295;28;20397;-62
2022/03/10 00:38:45;;;;;;;;;;;4.10;99.90;;;;;;5072388;28;19932;-61
2022/03/10 00:41:11;;;;;;;;;;;4.20;99.90;;;;;;5070929;28;19932;-63
2022/03/10 00:43:36;;;;;;;;;;;4.00;99.90;;;;;;5072290;28;19925;-61
2022/03/10 00:46:02;;;;;;;;;;;4.00;99.90;;;;;;5072012;28;19924;-62
2022/03/10 00:48:28;;;;;;;;;;;3.90;99.90;;;;;;5072228;28;20010;-62
2022/03/10 00:50:53;;;;;;;;;;;4.00;99.90;;;;;;5072134;28;19947;-69
2022/03/10 00:53:19;;;;;;;;;;;4.00;99.90;;;;;;5072132;28;19932;-63
2022/03/10 00:55:44;;;;;;;;;;;3.90;99.90;;;;;;5072264;28;19928;-62
2022/03/10 00:58:10;;;;;;;;;;;3.90;99.90;;;;;;5070223;28;19967;-63
2022/03/10 01:00:36;;;;;;;;;;;3.90;99.90;;;;;;5072177;28;20392;-62
2022/03/10 01:03:03;;;;;;;;;;;3.90;99.90;;;;;;5071784;28;19946;-62
2022/03/10 01:05:28;;;;;;;;;;;3.90;99.90;;;;;;5070949;28;19925;-62
2022/03/10 01:07:54;;;;;;;;;;;3.90;99.90;;;;;;5072126;28;20357;-61
2022/03/10 01:10:20;;;;;;;;;;;3.90;99.90;;;;;;5071622;28;19925;-61
2022/03/10 01:12:48;;;;;;;;;;;3.90;99.90;;;;;;5071957;28;19932;-61
2022/03/10 01:15:16;;;;;;;;;;;3.90;99.90;;;;;;5071646;28;19925;-62
2022/03/10 01:17:41;;;;;;;;;;;3.90;99.90;;;;;;5071927;28;20023;-61
2022/03/10 01:20:07;;;;;;;;;;;3.90;99.90;;;;;;5071547;28;20314;-61
2022/03/10 01:22:34;;;;;;;;;;;3.90;99.90;;;;;;5071839;28;19928;-61
2022/03/10 01:24:59;;;;;;;;;;;3.90;99.90;;;;;;5071551;28;20003;-64
2022/03/10 01:27:25;;;;;;;;;;;3.80;99.90;;;;;;5070745;28;20375;-61
2022/03/10 01:29:50;;;;;;;;;;;3.80;99.90;;;;;;5071831;28;20286;-61
2022/03/10 01:32:16;;;;;;;;;;;3.70;99.90;;;;;;5071331;28;19924;-61
2022/03/10 01:34:41;;;;;;;;;;;3.80;99.90;;;;;;5070555;28;19930;-61
2022/03/10 01:37:07;;;;;;;;;;;3.60;99.90;;;;;;5071765;28;19925;-61
2022/03/10 01:39:32;;;;;;;;;;;3.60;99.90;;;;;;5075756;28;19944;-61
2022/03/10 01:41:59;;;;;;;;;;;3.70;99.90;;;;;;5075879;28;19925;-61
2022/03/10 01:44:28;;;;;;;;;;;3.60;99.90;;;;;;5074513;28;20011;-61
2022/03/10 01:46:53;;;;;;;;;;;3.60;99.90;;;;;;5074256;28;19929;-61
2022/03/10 01:49:19;;;;;;;;;;;3.50;99.90;;;;;;5057239;28;20384;-61
2022/03/10 01:51:45;;;;;;;;;;;3.50;99.90;;;;;;5073977;28;19931;-61
2022/03/10 01:54:11;;;;;;;;;;;3.40;99.90;;;;;;5057076;28;19925;-61
2022/03/10 01:56:37;;;;;;;;;;;3.40;99.90;;;;;;5075246;28;20007;-61
2022/03/10 01:59:03;;;;;;;;;;;3.30;99.90;;;;;;5074854;28;19932;-61
2022/03/10 02:01:29;;;;;;;;;;;3.20;99.90;;;;;;5074201;28;19925;-61
2022/03/10 02:03:57;;;;;;;;;;;3.20;99.90;;;;;;5074211;28;19924;-61
2022/03/10 02:06:22;;;;;;;;;;;3.30;99.90;;;;;;5074834;28;20201;-61
2022/03/10 02:11:32;;;;;;;;;;;3.20;99.90;;;;;;5074033;28;19948;-61
2022/03/10 02:17:19;;;;;;;;;;;3.10;99.90;;;;;;5074945;28;19924;-62
2022/03/10 02:19:28;;;;;;;;;;;3.10;99.90;;;;;;5074593;28;20403;-61
2022/03/10 02:21:54;;;;;;;;;;;3.00;99.90;;;;;;5073670;28;19985;-61
2022/03/10 02:24:19;;;;;;;;;;;3.40;99.90;;;;;;5073167;28;19925;-60
2022/03/10 02:26:45;;;;;;;;;;;3.20;99.90;;;;;;5073374;28;20281;-61
2022/03/10 02:29:11;;;;;;;;;;;3.10;99.90;;;;;;5073985;28;19942;-60
2022/03/10 02:31:39;;;;;;;;;;;3.10;99.90;;;;;;5074800;28;19932;-62
2022/03/10 02:34:04;;;;;;;;;;;3.10;99.90;;;;;;5073395;28;19924;-62
2022/03/10 02:36:33;;;;;;;;;;;3.10;99.90;;;;;;5056449;28;19931;-61
2022/03/10 02:38:58;;;;;;;;;;;3.10;99.90;;;;;;5074569;28;19925;-61
2022/03/10 02:41:24;;;;;;;;;;;3.00;99.90;;;;;;5072687;28;19931;-60
2022/03/10 02:43:50;;;;;;;;;;;3.00;99.90;;;;;;5074420;28;19924;-60
2022/03/10 02:46:15;;;;;;;;;;;3.00;99.90;;;;;;5074391;28;20392;-61
2022/03/10 02:48:41;;;;;;;;;;;3.10;99.90;;;;;;5073774;28;20144;-61
2022/03/10 02:51:06;;;;;;;;;;;3.00;99.90;;;;;;5073913;28;19931;-62
2022/03/10 02:53:32;;;;;;;;;;;3.00;99.90;;;;;;5073693;28;19940;-62
2022/03/10 02:55:57;;;;;;;;;;;3.00;99.90;;;;;;5073103;28;19924;-61
2022/03/10 02:58:23;;;;;;;;;;;2.90;99.90;;;;;;5055707;28;20283;-61
2022/03/10 03:00:49;;;;;;;;;;;2.90;99.90;;;;;;5074017;28;19925;-61
2022/03/10 03:03:15;;;;;;;;;;;2.80;99.90;;;;;;5072757;28;20357;-61
2022/03/10 03:05:40;;;;;;;;;;;2.90;99.90;;;;;;5056363;28;19924;-60
2022/03/10 03:08:08;;;;;;;;;;;2.90;99.90;;;;;;5073328;28;20497;-61
2022/03/10 03:10:36;;;;;;;;;;;2.80;99.90;;;;;;5073286;28;20021;-61
2022/03/10 03:13:02;;;;;;;;;;;2.80;99.90;;;;;;5073644;28;20408;-64
2022/03/10 03:15:28;;;;;;;;;;;2.80;99.90;;;;;;5073513;28;19931;-61
2022/03/10 03:17:54;;;;;;;;;;;2.80;99.90;;;;;;5072576;28;19940;-61
2022/03/10 03:20:19;;;;;;;;;;;2.80;99.90;;;;;;5073474;28;20320;-60
2022/03/10 03:22:45;;;;;;;;;;;2.80;99.90;;;;;;5073655;28;19924;-60
2022/03/10 03:25:12;;;;;;;;;;;2.80;99.90;;;;;;5073595;28;19977;-63
2022/03/10 03:27:38;;;;;;;;;;;2.70;99.90;;;;;;5073645;28;19967;-62
2022/03/10 03:30:05;;;;;;;;;;;2.70;99.90;;;;;;5073476;28;20232;-61
2022/03/10 03:32:31;;;;;;;;;;;2.70;99.90;;;;;;5073186;28;19932;-62
2022/03/10 03:34:57;;;;;;;;;;;2.80;99.90;;;;;;5073573;28;19925;-60
2022/03/10 03:37:22;;;;;;;;;;;2.70;99.90;;;;;;5071718;28;19934;-62
2022/03/10 03:39:48;;;;;;;;;;;2.80;99.90;;;;;;5073103;28;19931;-61
2022/03/10 03:42:13;;;;;;;;;;;2.80;99.90;;;;;;5071732;28;20230;-61
2022/03/10 03:44:39;;;;;;;;;;;2.80;99.90;;;;;;5071366;28;19993;-60
2022/03/10 03:47:04;;;;;;;;;;;2.70;99.90;;;;;;5073190;28;19932;-61
2022/03/10 03:49:30;;;;;;;;;;;2.80;99.90;;;;;;5072644;28;20369;-60
2022/03/10 03:51:56;;;;;;;;;;;2.80;99.90;;;;;;5073072;28;19971;-60
2022/03/10 03:54:21;;;;;;;;;;;2.70;99.90;;;;;;5071508;28;19985;-60
2022/03/10 03:56:47;;;;;;;;;;;2.70;99.90;;;;;;5073215;28;19925;-62
2022/03/10 03:59:12;;;;;;;;;;;2.70;99.90;;;;;;5072014;28;19928;-61
2022/03/10 04:01:38;;;;;;;;;;;2.70;99.90;;;;;;5072567;28;20325;-60
2022/03/10 04:04:04;;;;;;;;;;;2.70;99.90;;;;;;5072803;28;20391;-63
2022/03/10 04:06:29;;;;;;;;;;;2.70;99.90;;;;;;5072378;28;19931;-62
2022/03/10 04:08:55;;;;;;;;;;;2.70;99.90;;;;;;5071634;28;19983;-62
2022/03/10 04:11:21;;;;;;;;;;;2.70;99.90;;;;;;5072476;28;19983;-61
2022/03/10 04:13:46;;;;;;;;;;;2.70;99.90;;;;;;5072758;28;19924;-62
2022/03/10 04:16:12;;;;;;;;;;;2.70;99.90;;;;;;5071028;28;19925;-61
2022/03/10 04:18:37;;;;;;;;;;;2.70;99.90;;;;;;5072228;28;19925;-62
2022/03/10 04:21:03;;;;;;;;;;;2.60;99.90;;;;;;5072570;28;19936;-62
2022/03/10 04:23:29;;;;;;;;;;;2.60;99.90;;;;;;5072588;28;19929;-64
2022/03/10 04:25:54;;;;;;;;;;;2.70;99.90;;;;;;5072534;28;19924;-64
2022/03/10 04:28:22;;;;;;;;;;;2.60;99.90;;;;;;5072049;28;20362;-71
2022/03/10 04:30:47;;;;;;;;;;;2.50;99.90;;;;;;5072180;28;20281;-62
2022/03/10 04:33:13;;;;;;;;;;;2.50;99.90;;;;;;5072380;28;20014;-62
2022/03/10 04:35:38;;;;;;;;;;;2.50;99.90;;;;;;5054438;28;19921;-62
2022/03/10 04:38:04;;;;;;;;;;;2.50;99.90;;;;;;5070966;28;19924;-62
2022/03/10 04:40:31;;;;;;;;;;;2.70;99.90;;;;;;5071879;28;19925;-62
2022/03/10 04:42:57;;;;;;;;;;;2.50;99.90;;;;;;5071142;28;20285;-62
2022/03/10 04:45:23;;;;;;;;;;;2.50;99.90;;;;;;5070871;28;19959;-62
2022/03/10 04:47:49;;;;;;;;;;;2.50;99.90;;;;;;5071037;28;19925;-61
2022/03/10 04:50:15;;;;;;;;;;;2.80;99.90;;;;;;5070946;28;20018;-61
2022/03/10 04:52:41;;;;;;;;;;;2.40;99.90;;;;;;5071835;28;19925;-62
2022/03/10 04:55:08;;;;;;;;;;;2.40;99.90;;;;;;5072130;28;19924;-62
2022/03/10 04:57:34;;;;;;;;;;;2.40;99.90;;;;;;5071598;28;19928;-62
2022/03/10 04:59:59;;;;;;;;;;;2.40;99.90;;;;;;5071999;28;19931;-64
2022/03/10 05:02:25;;;;;;;;;;;2.40;99.90;;;;;;5071621;28;19928;-65
2022/03/10 05:04:51;;;;;;;;;;;2.40;99.90;;;;;;5071987;28;19978;-62
2022/03/10 05:07:16;;;;;;;;;;;2.30;99.90;;;;;;5070443;28;20286;-62
2022/03/10 05:09:42;;;;;;;;;;;2.30;99.90;;;;;;5071182;28;19924;-63
2022/03/10 05:12:07;;;;;;;;;;;2.30;99.90;;;;;;5071289;28;19934;-61
2022/03/10 05:14:33;;;;;;;;;;;2.30;99.90;;;;;;5071539;28;19932;-62
2022/03/10 05:16:59;;;;;;;;;;;2.30;99.90;;;;;;5071918;28;19925;-62
2022/03/10 05:19:25;;;;;;;;;;;2.30;99.90;;;;;;5072133;28;20007;-61
2022/03/10 05:21:50;;;;;;;;;;;2.40;99.90;;;;;;5071489;28;20374;-61
2022/03/10 05:24:16;;;;;;;;;;;2.40;99.90;;;;;;5071848;28;20019;-62
2022/03/10 05:26:42;;;;;;;;;;;2.30;99.90;;;;;;5053770;28;19925;-64
2022/03/10 05:29:07;;;;;;;;;;;2.30;99.90;;;;;;5071755;28;19943;-62
2022/03/10 05:31:33;;;;;;;;;;;2.40;99.90;;;;;;5071304;28;19936;-62
2022/03/10 05:33:58;;;;;;;;;;;2.30;99.90;;;;;;5071662;28;19970;-62
2022/03/10 05:36:24;;;;;;;;;;;2.40;99.90;;;;;;5071604;28;19925;-62
2022/03/10 05:38:50;;;;;;;;;;;2.30;99.90;;;;;;5070231;28;19925;-61
2022/03/10 05:41:15;;;;;;;;;;;2.30;99.90;;;;;;5071505;28;19946;-61
2022/03/10 05:43:41;;;;;;;;;;;2.30;99.90;;;;;;5069958;28;19984;-62
2022/03/10 05:46:07;;;;;;;;;;;2.40;99.90;;;;;;5071432;28;19924;-61
2022/03/10 05:48:32;;;;;;;;;;;2.40;99.90;;;;;;5071008;28;20046;-61
2022/03/10 05:50:58;;;;;;;;;;;2.40;99.90;;;;;;5071333;28;19924;-62
2022/03/10 05:53:24;;;;;;;;;;;2.40;99.90;;;;;;5071043;28;19947;-62
2022/03/10 05:55:50;;;;;;;;;;;2.40;99.90;;;;;;5069915;28;19983;-61
2022/03/10 05:58:15;;;;;;;;;;;2.40;99.90;;;;;;5071018;28;19924;-60
2022/03/10 06:00:41;;;;;;;;;;;2.40;99.90;;;;;;5069772;28;19936;-61
2022/03/10 06:03:06;;;;;;;;;;;2.40;99.90;;;;;;5071283;28;19924;-62
2022/03/10 06:05:33;;;;;;;;;;;2.60;99.90;;;;;;5053240;28;19929;-68
2022/03/10 06:07:58;;;;;;;;;;;2.40;99.90;;;;;;5070377;28;20385;-62
2022/03/10 06:10:24;;;;;;;;;;;2.40;99.90;;;;;;5053038;28;19925;-61
2022/03/10 06:12:50;;;;;;;;;;;2.40;99.90;;;;;;5070927;28;19924;-61
2022/03/10 06:15:15;;;;;;;;;;;2.40;99.90;;;;;;5070955;28;19932;-60
2022/03/10 06:17:41;;;;;;;;;;;2.40;99.90;;;;;;5069013;28;19924;-60
2022/03/10 06:20:07;;;;;;;;;;;2.40;99.90;;;;;;5070926;28;19935;-64
2022/03/10 06:22:33;;;;;;;;;;;2.40;99.90;;;;;;5103659;28;20293;-61
2022/03/10 06:24:59;;;;;;;;;;;2.40;99.90;;;;;;5070791;28;19927;-60
2022/03/10 06:27:25;;;;;;;;;;;2.40;99.90;;;;;;5073194;28;19925;-60
2022/03/10 06:29:51;;;;;;;;;;;2.50;99.90;;;;;;5074264;28;20011;-61
2022/03/10 06:32:17;;;;;;;;;;;2.40;99.90;;;;;;5073496;28;20062;-61
2022/03/10 06:34:43;;;;;;;;;;;2.50;99.90;;;;;;5074028;28;20420;-60
2022/03/10 06:37:09;;;;;;;;;;;2.50;99.90;;;;;;5074489;28;19983;-61
2022/03/10 06:39:35;;;;;;;;;;;2.50;99.90;;;;;;5039901;28;19967;-60
2022/03/10 06:42:02;;;;;;;;;;;2.50;99.90;;;;;;5074043;28;19924;-61
2022/03/10 06:44:28;;;;;;;;;;;2.50;99.90;;;;;;5072870;28;20290;-62
2022/03/10 06:46:57;;;;;;;;;;;2.70;99.90;;;;;;5073829;28;20514;-60
2022/03/10 06:49:23;;;;;;;;;;;2.60;99.90;;;;;;5074412;28;20012;-63
2022/03/10 06:51:49;;;;;;;;;;;2.60;99.90;;;;;;5073599;28;20362;-61
2022/03/10 06:54:15;;;;;;;;;;;2.70;99.90;;;;;;5073707;28;19924;-61
2022/03/10 06:56:41;;;;;;;;;;;2.70;99.90;;;;;;5073703;28;19924;-60
2022/03/10 06:59:07;;;;;;;;;;;2.70;99.90;;;;;;5073809;28;19977;-60
2022/03/10 07:01:33;;;;;;;;;;;2.80;99.90;;;;;;5072977;28;19932;-61
2022/03/10 07:03:59;;;;;;;;;;;3.20;99.90;;;;;;5073563;28;19924;-63
2022/03/10 07:06:25;;;;;;;;;;;2.80;99.90;;;;;;5073542;28;19925;-60
2022/03/10 07:08:51;;;;;;;;;;;2.90;99.90;;;;;;5073182;28;19983;-59
2022/03/10 07:11:17;;;;;;;;;;;2.90;99.90;;;;;;5072458;28;19967;-61
2022/03/10 07:13:42;;;;;;;;;;;3.00;99.90;;;;;;5055615;28;20327;-60
2022/03/10 07:16:09;;;;;;;;;;;3.10;99.90;;;;;;5073552;28;20015;-60
2022/03/10 07:18:34;;;;;;;;;;;3.30;99.90;;;;;;5072421;28;19931;-60
2022/03/10 07:21:00;;;;;;;;;;;3.90;99.90;;;;;;5055593;28;20281;-61
2022/03/10 07:23:26;;;;;;;;;;;4.60;99.90;;;;;;5073680;28;19943;-61
2022/03/10 07:25:51;;;;;;;;;;;5.30;99.90;;;;;;5071778;28;19928;-60
2022/03/10 07:28:17;;;;;;;;;;;5.70;99.90;;;;;;5073049;28;20011;-60
2022/03/10 07:30:43;;;;;;;;;;;6.10;99.90;;;;;;5073216;28;19947;-71
2022/03/10 07:33:08;;;;;;;;;;;6.50;99.90;;;;;;5071515;28;19924;-61
2022/03/10 07:35:34;;;;;;;;;;;7.10;98.70;;;;;;5072565;28;20015;-60
2022/03/10 07:37:59;;;;;;;;;;;7.40;97.80;;;;;;5072457;28;20324;-62
2022/03/10 07:40:26;;;;;;;;;;;8.00;97.50;;;;;;5071563;28;19963;-60
2022/03/10 07:42:51;;;;;;;;;;;8.50;93.80;;;;;;5072668;28;20327;-60
2022/03/10 07:45:17;;;;;;;;;;;8.90;92.50;;;;;;5071770;28;20003;-60
2022/03/10 07:47:42;;;;;;;;;;;9.30;90.10;;;;;;5054946;28;19929;-61
2022/03/10 07:50:09;;;;;;;;;;;9.80;91.60;;;;;;5071155;28;19920;-61
2022/03/10 07:52:34;;;;;;;;;;;10.10;90.10;;;;;;5072714;28;20043;-61
2022/03/10 07:55:00;;;;;;;;;;;10.50;84.30;;;;;;5071424;28;19975;-61
2022/03/10 07:57:26;;;;;;;;;;;10.80;83.40;;;;;;5072446;28;20281;-61
2022/03/10 07:59:52;;;;;;;;;;;11.20;78.50;;;;;;5071116;28;20015;-60
2022/03/10 08:02:17;;;;;;;;;;;11.70;78.40;;;;;;5072414;28;19994;-62
2022/03/10 08:04:43;;;;;;;;;;;11.70;78.30;;;;;;5071256;28;19974;-59
2022/03/10 08:07:09;;;;;;;;;;;12.10;76.30;;;;;;5070831;28;19927;-64
2022/03/10 08:09:34;;;;;;;;;;;12.50;76.00;;;;;;5071897;28;20428;-59
2022/03/10 08:12:00;;;;;;;;;;;12.50;72.60;;;;;;5071823;28;19924;-61
2022/03/10 08:14:26;;;;;;;;;;;12.40;73.30;;;;;;5070881;28;19924;-60
2022/03/10 08:16:52;;;;;;;;;;;12.80;73.90;;;;;;5070621;28;19977;-62
2022/03/10 08:19:17;;;;;;;;;;;13.00;70.50;;;;;;5070408;28;20160;-60
2022/03/10 08:21:43;;;;;;;;;;;13.00;68.00;;;;;;5072156;28;19928;-61
2022/03/10 08:24:10;;;;;;;;;;;13.20;69.60;;;;;;5071019;28;19924;-61
2022/03/10 08:26:36;;;;;;;;;;;13.40;68.10;;;;;;5071022;28;19931;-61
2022/03/10 08:29:01;;;;;;;;;;;13.50;68.30;;;;;;5071834;28;19925;-60
2022/03/10 08:31:27;;;;;;;;;;;13.50;66.60;;;;;;5072162;28;20336;-62
2022/03/10 08:33:52;;;;;;;;;;;13.70;67.10;;;;;;5054138;28;20369;-64
2022/03/10 08:36:18;;;;;;;;;;;13.80;68.20;;;;;;5071971;28;19931;-62
2022/03/10 08:38:44;;;;;;;;;;;14.00;66.00;;;;;;5072090;28;19931;-61
2022/03/10 08:41:09;;;;;;;;;;;14.20;66.70;;;;;;5070730;28;19968;-61
2022/03/10 08:43:37;;;;;;;;;;;14.20;64.70;;;;;;5072105;28;20006;-60
2022/03/10 08:46:03;;;;;;;;;;;14.60;66.40;;;;;;5070431;28;20417;-62
2022/03/10 08:48:31;;;;;;;;;;;14.90;66.10;;;;;;5071175;28;19963;-61
2022/03/10 08:51:00;;;;;;;;;;;15.00;64.00;;;;;;5071383;28;19931;-61
2022/03/10 08:53:26;;;;;;;;;;;15.20;64.10;;;;;;5071367;28;20416;-62
2022/03/10 08:55:52;;;;;;;;;;;15.30;62.40;;;;;;5071386;28;19924;-62
2022/03/10 08:58:21;;;;;;;;;;;15.30;63.30;;;;;;5070415;28;19931;-60
2022/03/10 09:00:46;;;;;;;;;;;15.40;64.40;;;;;;5070512;28;19925;-62
2022/03/10 09:03:12;;;;;;;;;;;15.50;63.30;;;;;;5071170;28;19954;-61
2022/03/10 09:05:39;;;;;;;;;;;15.60;62.80;;;;;;5071719;28;19931;-61
2022/03/10 09:08:05;;;;;;;;;;;15.90;63.20;;;;;;5071278;28;20041;-61
2022/03/10 09:10:30;;;;;;;;;;;15.90;63.10;;;;;;5071098;28;20413;-61
2022/03/10 09:12:56;;;;;;;;;;;16.10;62.00;;;;;;5071130;28;19954;-68
2022/03/10 09:15:22;;;;;;;;;;;16.30;61.70;;;;;;5071337;28;19928;-63
2022/03/10 09:17:48;;;;;;;;;;;16.30;62.80;;;;;;5071213;28;19982;-61
2022/03/10 09:20:14;;;;;;;;;;;15.90;62.30;;;;;;5071001;28;19926;-61
2022/03/10 09:22:40;;;;;;;;;;;15.00;62.20;;;;;;5069523;28;19931;-61
2022/03/10 09:25:08;;;;;;;;;;;13.80;63.30;;;;;;5069705;28;20340;-61
2022/03/10 09:27:34;;;;;;;;;;;13.30;65.10;;;;;;5071072;28;19929;-63
2022/03/10 09:30:00;;;;;;;;;;;12.90;66.10;;;;;;5069154;28;19924;-61
2022/03/10 09:32:32;;;;;;;;;;;12.60;66.70;;;;;;5069862;28;19954;-61
2022/03/10 09:34:57;;;;;;;;;;;12.50;67.80;;;;;;5070674;28;19931;-69
2022/03/10 09:37:23;;;;;;;;;;;12.20;68.70;;;;;;5070789;28;20235;-61
2022/03/10 09:39:49;;;;;;;;;;;12.10;68.70;;;;;;5070956;28;19925;-61
2022/03/10 09:42:15;;;;;;;;;;;12.10;69.20;;;;;;5070479;28;19925;-60
2022/03/10 09:44:43;;;;;;;;;;;11.90;68.90;;;;;;5071156;28;19924;-61
2022/03/10 09:47:08;;;;;;;;;;;11.90;69.40;;;;;;5070842;28;19979;-61
2022/03/10 09:49:34;;;;;;;;;;;11.90;69.80;;;;;;5071698;28;19924;-61
2022/03/10 09:52:00;;;;;;;;;;;11.90;69.80;;;;;;5103741;28;19924;-62
2022/03/10 09:54:25;;;;;;;;;;;11.90;70.30;;;;;;5052855;28;19935;-63
2022/03/10 09:56:51;;;;;;;;;;;11.80;69.80;;;;;;5070599;28;19925;-61
2022/03/10 09:59:19;;;;;;;;;;;11.90;70.10;;;;;;5072647;28;19930;-60
2022/03/10 10:01:45;;;;;;;;;;;12.00;69.70;;;;;;5074910;28;19924;-60
2022/03/10 10:04:11;;;;;;;;;;;12.00;70.20;;;;;;5074207;28;20336;-60
2022/03/10 10:06:55;;;;;;;;;;;12.10;69.50;;;;;;5074512;28;19925;-60
2022/03/10 10:09:21;;;;;;;;;;;12.00;69.70;;;;;;5074008;28;20154;-61
2022/03/10 10:11:46;;;;;;;;;;;12.00;69.50;;;;;;5074328;28;19924;-61
2022/03/10 10:14:14;;;;;;;;;;;11.90;69.70;;;;;;5074332;28;19925;-60
2022/03/10 10:16:47;;;;;;;;;;;11.80;70.10;;;;;;5073374;28;20408;-60
2022/03/10 10:19:16;;;;;;;;;;;11.80;70.20;;;;;;5074057;28;19932;-62
2022/03/10 10:21:42;;;;;;;;;;;11.80;71.00;;;;;;5107410;28;19947;-60
2022/03/10 10:24:15;;;;;;;;;;;11.80;70.50;;;;;;5072834;28;20024;-60
2022/03/10 10:26:40;;;;;;;;;;;11.90;70.30;;;;;;5074718;28;19931;-60
2022/03/10 10:29:06;;;;;;;;;;;11.90;70.10;;;;;;5072619;28;19925;-62
2022/03/10 10:31:36;;;;;;;;;;;12.00;70.00;;;;;;5073149;28;20366;-61
2022/03/10 10:34:08;;;;;;;;;;;12.10;69.50;;;;;;5074268;28;19935;-60
2022/03/10 10:36:36;;;;;;;;;;;12.20;68.40;;;;;;5074275;28;19924;-60
2022/03/10 10:39:22;;;;;;;;;;;12.30;68.40;;;;;;5072990;28;20378;-63
2022/03/10 10:41:47;;;;;;;;;;;12.30;68.40;;;;;;5073334;28;19924;-60
2022/03/10 10:44:17;;;;;;;;;;;12.20;68.50;;;;;;5073518;28;20391;-63
2022/03/10 10:46:44;;;;;;;;;;;12.20;68.80;;;;;;5074299;28;19924;-65
2022/03/10 10:49:14;;;;;;;;;;;12.30;69.30;;;;;;5073853;28;20020;-63
2022/03/10 10:51:44;;;;;;;;;;;12.40;69.50;;;;;;5074123;28;20281;-61
2022/03/10 10:54:23;;;;;;;;;;;12.60;67.90;;;;;;5073634;28;19920;-63
2022/03/10 10:56:48;;;;;;;;;;;12.70;68.70;;;;;;5072931;28;19980;-61
2022/03/10 10:59:29;;;;;;;;;;;12.80;68.80;;;;;;5106199;28;19994;-61
2022/03/10 11:02:05;;;;;;;;;;;12.80;68.60;;;;;;5072839;28;19989;-62
2022/03/10 11:04:31;;;;;;;;;;;12.90;68.70;;;;;;5073715;28;20072;-62
2022/03/10 11:06:56;;;;;;;;;;;12.90;68.00;;;;;;5073886;28;19924;-60
2022/03/10 11:09:22;;;;;;;;;;;12.90;68.20;;;;;;5073312;28;19935;-62
2022/03/10 11:11:48;;;;;;;;;;;12.80;68.80;;;;;;5073006;28;19924;-61
2022/03/10 11:14:13;;;;;;;;;;;12.80;69.50;;;;;;5072373;28;19925;-62
2022/03/10 11:16:42;;;;;;;;;;;12.90;69.20;;;;;;5072608;28;19925;-61
2022/03/10 11:19:10;;;;;;;;;;;12.90;68.20;;;;;;5072453;28;19920;-61
2022/03/10 11:21:41;;;;;;;;;;;12.90;68.30;;;;;;5073432;28;19924;-61
2022/03/10 11:24:10;;;;;;;;;;;12.80;68.60;;;;;;5073761;28;19999;-61
2022/03/10 11:26:54;;;;;;;;;;;12.80;67.20;;;;;;5073487;28;19935;-61
2022/03/10 11:29:21;;;;;;;;;;;12.90;66.80;;;;;;5071836;28;19967;-62
2022/03/10 11:31:47;;;;;;;;;;;12.90;65.90;;;;;;5073192;28;19935;-61
2022/03/10 11:34:32;;;;;;;;;;;13.00;66.40;;;;;;5072973;28;20027;-61
2022/03/10 11:37:08;;;;;;;;;;;13.00;65.30;;;;;;5071443;28;19924;-61
2022/03/10 11:39:51;;;;;;;;;;;13.00;64.60;;;;;;5072961;28;19924;-62
2022/03/10 11:42:30;;;;;;;;;;;13.00;65.40;;;;;;5072892;28;19970;-64
2022/03/10 11:45:05;;;;;;;;;;;13.10;65.50;;;;;;5073240;28;19971;-61
2022/03/10 11:47:31;;;;;;;;;;;13.10;65.50;;;;;;5072810;28;20267;-63
2022/03/10 11:49:57;;;;;;;;;;;13.20;65.50;;;;;;5072994;28;19930;-62
2022/03/10 11:52:23;;;;;;;;;;;13.20;65.70;;;;;;5072735;28;20376;-62
2022/03/10 11:55:04;;;;;;;;;;;13.30;65.80;;;;;;5072787;28;19924;-61
2022/03/10 11:57:40;;;;;;;;;;;13.30;64.90;;;;;;5072517;28;20020;-61
2022/03/10 12:00:06;;;;;;;;;;;13.20;64.60;;;;;;5072921;28;19931;-61
2022/03/10 12:02:39;;;;;;;;;;;13.10;65.20;;;;;;5072742;28;19925;-61
2022/03/10 12:05:05;;;;;;;;;;;13.20;65.10;;;;;;5072805;28;19976;-61
2022/03/10 12:07:31;;;;;;;;;;;13.20;64.50;;;;;;5072424;28;20123;-60
2022/03/10 12:10:01;;;;;;;;;;;13.30;65.00;;;;;;5072648;28;19924;-61
2022/03/10 12:12:28;;;;;;;;;;;13.30;64.70;;;;;;5071221;28;19921;-61
2022/03/10 12:14:56;;;;;;;;;;;13.40;64.90;;;;;;5072423;28;19936;-62
2022/03/10 12:17:40;;;;;;;;;;;13.50;64.60;;;;;;5070955;28;19930;-60
2022/03/10 12:20:15;;;;;;;;;;;13.50;64.40;;;;;;5072499;28;19928;-60
2022/03/10 12:23:01;;;;;;;;;;;13.50;64.00;;;;;;5071013;28;19931;-61
2022/03/10 12:25:27;;;;;;;;;;;13.50;63.70;;;;;;5072036;28;19924;-60
2022/03/10 12:27:54;;;;;;;;;;;13.50;64.30;;;;;;5071265;28;19929;-61
2022/03/10 12:30:20;;;;;;;;;;;13.60;64.00;;;;;;5071936;28;19943;-61
2022/03/10 12:32:48;;;;;;;;;;;13.60;63.90;;;;;;5072237;28;19935;-61
2022/03/10 12:35:13;;;;;;;;;;;13.60;64.40;;;;;;5070803;28;19928;-60
2022/03/10 12:37:45;;;;;;;;;;;13.70;64.40;;;;;;5053983;28;20057;-60
2022/03/10 12:40:15;;;;;;;;;;;13.80;64.60;;;;;;5072200;28;19924;-60
2022/03/10 12:42:41;;;;;;;;;;;13.80;64.20;;;;;;5071649;28;19948;-59
2022/03/10 12:45:07;;;;;;;;;;;13.90;63.90;;;;;;5071998;28;19928;-62
2022/03/10 12:47:33;;;;;;;;;;;13.90;63.80;;;;;;5070546;28;20323;-62
2022/03/10 12:49:59;;;;;;;;;;;13.90;63.00;;;;;;5072059;28;20378;-61
2022/03/10 12:52:27;;;;;;;;;;;14.00;63.20;;;;;;5071664;28;19925;-62
2022/03/10 12:54:56;;;;;;;;;;;14.00;63.60;;;;;;5071929;28;19935;-62
2022/03/10 12:57:21;;;;;;;;;;;13.90;63.50;;;;;;5071092;28;19931;-62
2022/03/10 12:59:48;;;;;;;;;;;13.90;63.00;;;;;;5070818;28;19929;-60
2022/03/10 13:02:18;;;;;;;;;;;13.90;62.20;;;;;;5104024;28;19983;-60
2022/03/10 13:04:51;;;;;;;;;;;13.90;62.80;;;;;;5071366;28;19924;-61
2022/03/10 13:07:17;;;;;;;;;;;13.90;62.90;;;;;;5071639;28;20007;-60
2022/03/10 13:09:56;;;;;;;;;;;13.90;63.40;;;;;;5069957;28;19924;-61
2022/03/10 13:12:39;;;;;;;;;;;14.00;62.70;;;;;;5070483;28;19928;-63
2022/03/10 13:15:05;;;;;;;;;;;14.10;62.30;;;;;;5071506;28;19925;-62
2022/03/10 13:17:36;;;;;;;;;;;13.90;62.60;;;;;;5069874;28;20015;-60
2022/03/10 13:20:10;;;;;;;;;;;13.90;62.90;;;;;;5071561;28;20049;-61
2022/03/10 13:22:35;;;;;;;;;;;13.90;62.80;;;;;;5070032;28;19924;-61
2022/03/10 13:25:01;;;;;;;;;;;13.90;62.70;;;;;;5070462;28;19924;-60
2022/03/10 13:27:27;;;;;;;;;;;13.90;62.60;;;;;;5071218;28;20015;-61
2022/03/10 13:29:53;;;;;;;;;;;13.90;62.80;;;;;;5071522;28;19928;-60
2022/03/10 13:32:19;;;;;;;;;;;13.90;62.70;;;;;;5070286;28;19925;-62
2022/03/10 13:34:45;;;;;;;;;;;14.00;63.00;;;;;;5074134;28;19924;-60
2022/03/10 13:37:11;;;;;;;;;;;14.00;62.90;;;;;;5075608;28;20247;-61
2022/03/10 13:39:38;;;;;;;;;;;14.10;63.40;;;;;;5074034;28;19931;-60
2022/03/10 13:42:04;;;;;;;;;;;14.10;63.30;;;;;;5075491;28;19924;-62
2022/03/10 13:44:30;;;;;;;;;;;14.10;62.90;;;;;;5073936;28;20032;-63
2022/03/10 13:47:05;;;;;;;;;;;14.10;63.60;;;;;;5075446;28;20382;-62
2022/03/10 13:49:39;;;;;;;;;;;14.10;63.80;;;;;;5073934;28;19931;-61
2022/03/10 13:52:09;;;;;;;;;;;14.20;63.60;;;;;;5075412;28;19968;-62
2022/03/10 13:54:37;;;;;;;;;;;14.30;64.10;;;;;;5074869;28;20359;-62
2022/03/10 13:57:03;;;;;;;;;;;14.30;63.90;;;;;;5075288;28;19928;-61
2022/03/10 13:59:30;;;;;;;;;;;14.30;63.70;;;;;;5074993;28;19930;-63
2022/03/10 14:01:55;;;;;;;;;;;14.30;64.00;;;;;;5108082;28;19924;-62
2022/03/10 14:04:21;;;;;;;;;;;14.30;63.70;;;;;;5057269;28;19932;-61
2022/03/10 14:06:48;;;;;;;;;;;14.30;63.80;;;;;;5074721;28;19970;-61
2022/03/10 14:09:18;;;;;;;;;;;14.40;64.10;;;;;;5075156;28;19928;-61
2022/03/10 14:11:44;;;;;;;;;;;14.40;63.90;;;;;;5074454;28;19976;-61
2022/03/10 14:14:09;;;;;;;;;;;14.40;64.20;;;;;;5075025;28;19991;-60
2022/03/10 14:16:35;;;;;;;;;;;14.40;64.10;;;;;;5056698;28;20004;-63
2022/03/10 14:19:03;;;;;;;;;;;14.30;64.20;;;;;;5074769;28;19925;-62
2022/03/10 14:21:29;;;;;;;;;;;14.30;64.10;;;;;;5073556;28;19983;-61
2022/03/10 14:23:59;;;;;;;;;;;14.30;64.40;;;;;;5074554;28;20011;-64
2022/03/10 14:26:25;;;;;;;;;;;14.40;64.10;;;;;;5073673;28;20011;-60
2022/03/10 14:28:53;;;;;;;;;;;14.40;64.20;;;;;;5073243;28;20515;-61